createdAt,value
2023-05-02T04:16:51.887Z,94.78
2023-05-02T04:17:52.869Z,94.58
2023-05-02T04:20:08.335Z,94.68
2023-05-02T04:21:04.466Z,94.17
2023-05-02T04:22:04.353Z,94.17
2023-05-02T04:23:04.344Z,93.86
2023-05-02T04:24:04.365Z,94.17
2023-05-02T04:25:10.855Z,93.86
2023-05-02T04:26:23.777Z,94.07
2023-05-02T04:27:12.444Z,93.86
2023-05-02T04:28:12.013Z,94.07
2023-05-02T04:29:10.853Z,94.58
2023-05-02T04:30:12.048Z,94.48
2023-05-02T04:31:13.716Z,93.86
2023-05-02T04:32:04.235Z,93.76
2023-05-02T04:33:04.294Z,93.82
2023-05-02T04:34:10.770Z,93.20
2023-05-02T04:35:10.801Z,93.00
2023-05-02T04:36:10.727Z,93.20
2023-05-02T04:37:12.160Z,93.20
2023-05-02T04:38:10.741Z,92.59
2023-05-02T04:39:12.164Z,92.18
2023-05-02T04:40:12.184Z,92.28
2023-05-02T04:41:12.200Z,93.10
2023-05-02T04:42:12.204Z,92.90
2023-05-02T04:43:10.696Z,92.79
2023-05-02T04:44:04.112Z,92.59
2023-05-02T04:45:04.111Z,92.90
2023-05-02T04:46:11.697Z,92.18
2023-05-02T04:47:11.725Z,92.59
2023-05-02T04:48:10.732Z,92.59
2023-05-02T04:49:10.605Z,91.46
2023-05-02T04:50:10.617Z,92.18
2023-05-02T04:51:13.452Z,92.08
2023-05-02T04:52:04.026Z,91.97
2023-05-02T04:53:10.564Z,91.87
2023-05-02T04:54:10.574Z,91.97
2023-05-02T04:55:10.896Z,91.97
2023-05-02T04:56:04.000Z,91.36
2023-05-02T04:57:10.524Z,91.05
2023-05-02T04:58:10.521Z,91.16
2023-05-02T04:59:10.566Z,90.95
2023-05-02T05:00:10.900Z,91.16
2023-05-02T05:01:27.080Z,91.16
2023-05-02T05:02:04.057Z,91.36
2023-05-02T05:03:10.690Z,91.77
2023-05-02T05:04:10.685Z,91.46
2023-05-02T05:05:03.950Z,91.87
2023-05-02T05:06:03.923Z,91.46
2023-05-02T05:07:11.442Z,91.97
2023-05-02T05:08:12.021Z,91.46
2023-05-02T05:09:10.398Z,91.26
2023-05-02T05:10:10.389Z,91.26
2023-05-02T05:11:17.530Z,91.97
2023-05-02T05:12:10.384Z,91.36
2023-05-02T05:13:10.348Z,91.36
2023-05-02T05:14:11.628Z,91.46
2023-05-02T05:15:10.341Z,91.56
2023-05-02T05:16:13.415Z,91.77
2023-05-02T05:17:10.276Z,91.97
2023-05-02T05:18:10.327Z,92.49
2023-05-02T05:19:11.844Z,91.67
2023-05-02T05:20:03.738Z,92.08
2023-05-02T05:21:11.745Z,91.87
2023-05-02T05:22:10.234Z,92.08
2023-05-02T05:24:13.960Z,91.87
2023-05-02T05:25:21.481Z,92.59
2023-05-02T05:26:23.377Z,93.20
2023-05-02T05:27:21.466Z,92.59
2023-05-02T05:28:21.449Z,91.77
2023-05-02T05:29:21.404Z,91.56
2023-05-02T05:30:21.662Z,91.77
2023-05-02T05:31:33.283Z,91.87
2023-05-02T05:32:15.027Z,92.18
2023-05-02T05:33:14.964Z,91.97
2023-05-02T05:34:21.670Z,91.87
2023-05-02T05:35:14.832Z,92.28
2023-05-02T05:36:15.661Z,92.28
2023-05-02T05:37:14.813Z,92.49
2023-05-02T05:38:14.799Z,92.18
2023-05-02T05:39:14.779Z,91.87
2023-05-02T05:40:21.630Z,91.56
2023-05-02T05:41:32.058Z,90.64
2023-05-02T05:43:25.342Z,90.81
2023-05-02T05:44:26.328Z,91.22
2023-05-02T05:45:36.521Z,90.91
2023-05-02T05:46:33.917Z,90.19
2023-05-02T05:47:33.063Z,90.09
2023-05-02T05:48:34.461Z,90.09
2023-05-02T05:49:32.796Z,89.89
2023-05-02T05:50:54.265Z,89.78
2023-05-02T05:52:45.914Z,89.68
2023-05-02T05:53:38.369Z,90.70
2023-05-02T05:54:38.280Z,90.05
2023-05-02T05:56:50.708Z,89.74
2023-05-02T05:57:59.429Z,89.33
2023-05-02T05:58:59.853Z,89.64
2023-05-02T05:59:51.682Z,89.43
2023-05-02T06:03:41.922Z,88.06
2023-05-02T06:04:31.928Z,87.85
2023-05-02T06:07:14.192Z,87.85
2023-05-02T06:07:54.187Z,87.76
2023-05-02T06:09:00.732Z,88.06
2023-05-02T06:09:55.253Z,88.78
2023-05-02T06:12:42.217Z,88.98
2023-05-02T06:15:03.719Z,88.37
2023-05-02T06:17:11.816Z,88.57
2023-05-02T06:18:12.827Z,88.78
2023-05-02T06:20:38.120Z,89.50
2023-05-02T06:21:24.902Z,89.90
2023-05-02T06:22:24.828Z,88.88
2023-05-02T06:34:14.790Z,89.33
2023-05-02T06:38:57.748Z,88.68
2023-05-02T06:41:17.284Z,88.26
2023-05-02T06:42:12.399Z,88.26
2023-05-02T06:48:51.573Z,87.06
2023-05-02T06:55:55.875Z,86.41
2023-05-02T06:58:23.425Z,86.10
2023-05-02T07:00:40.479Z,87.02
2023-05-02T07:04:07.330Z,85.79
2023-05-02T07:15:58.292Z,84.59
2023-05-02T07:16:59.446Z,84.80
2023-05-02T07:17:45.095Z,84.80
2023-05-02T07:18:58.524Z,84.59
2023-05-02T07:19:51.248Z,84.66
2023-05-02T07:20:59.759Z,83.94
2023-05-02T07:21:58.892Z,83.18
2023-05-02T07:22:59.146Z,83.39
2023-05-02T07:23:44.977Z,82.92
2023-05-02T07:24:45.981Z,83.53
2023-05-02T07:25:44.957Z,82.92
2023-05-02T07:26:44.965Z,83.57
2023-05-02T07:27:44.961Z,83.94
2023-05-02T07:28:44.931Z,84.34
2023-05-02T07:48:45.098Z,89.63
2023-05-02T07:49:53.016Z,91.20
2023-05-02T07:52:14.121Z,91.66
2023-05-02T07:53:04.599Z,92.88
2023-05-02T07:54:04.653Z,92.58
2023-05-02T07:55:13.391Z,93.50
2023-05-02T07:56:12.844Z,95.03
2023-05-02T07:57:12.829Z,94.21
2023-05-02T07:58:04.545Z,94.32
2023-05-02T07:59:11.237Z,93.86
2023-05-02T08:00:11.808Z,93.45
2023-05-02T08:01:23.905Z,94.33
2023-05-02T08:02:11.158Z,91.31
2023-05-02T08:06:36.700Z,92.47
2023-05-02T08:07:44.297Z,91.46
2023-05-02T08:08:43.918Z,92.94
2023-05-02T08:09:43.887Z,93.76
2023-05-02T08:10:43.818Z,91.27
2023-05-02T08:11:55.858Z,92.29
2023-05-02T08:13:57.239Z,92.14
2023-05-02T08:14:49.275Z,89.39
2023-05-02T08:15:56.759Z,91.78
2023-05-02T08:16:56.730Z,91.06
2023-05-02T08:17:49.393Z,92.59
2023-05-02T08:18:56.003Z,92.29
2023-05-02T08:19:56.986Z,91.47
2023-05-02T08:20:55.903Z,91.98
2023-05-02T08:21:56.031Z,92.69
2023-05-02T08:22:57.950Z,91.47
2023-05-02T08:23:55.957Z,91.37
2023-05-02T08:24:49.175Z,90.75
2023-05-02T08:25:49.172Z,89.53
2023-05-02T08:27:07.434Z,88.51
2023-05-02T08:27:49.174Z,91.27
2023-05-02T08:28:49.154Z,91.22
2023-05-02T08:29:49.130Z,88.06
2023-05-02T08:30:55.750Z,88.63
2023-05-02T08:31:56.939Z,87.10
2023-05-02T08:32:55.804Z,85.94
2023-05-02T08:33:55.492Z,84.96
2023-05-02T08:34:55.820Z,85.61
2023-05-02T08:35:58.440Z,87.14
2023-05-02T08:36:58.355Z,88.06
2023-05-02T08:37:55.216Z,87.18
2023-05-02T08:38:55.787Z,87.49
2023-05-02T08:39:55.273Z,86.88
2023-05-02T08:41:03.056Z,88.51
2023-05-02T08:41:49.005Z,91.12
2023-05-02T08:42:57.556Z,88.47
2023-05-02T08:43:55.494Z,86.26
2023-05-02T08:44:56.675Z,87.18
2023-05-02T08:47:02.322Z,88.41
2023-05-02T08:48:03.317Z,86.98
2023-05-02T08:49:03.231Z,87.38
2023-05-02T08:50:11.250Z,88.41
2023-05-02T08:51:14.989Z,87.14
2023-05-02T08:52:09.740Z,86.22
2023-05-02T08:53:11.282Z,86.43
2023-05-02T08:54:03.224Z,85.16
2023-05-02T08:55:03.292Z,85.98
2023-05-02T08:56:32.839Z,86.49
2023-05-02T08:57:09.717Z,83.94
2023-05-02T08:58:29.354Z,85.92
2023-05-02T08:59:10.872Z,84.96
2023-05-02T09:00:10.876Z,84.86
2023-05-02T09:01:13.901Z,84.66
2023-05-02T09:02:09.931Z,85.77
2023-05-02T09:03:03.151Z,84.25
2023-05-02T09:04:09.606Z,85.53
2023-05-02T09:05:10.934Z,83.49
2023-05-02T09:06:15.626Z,82.07
2023-05-02T09:07:03.038Z,80.54
2023-05-02T09:08:03.031Z,80.68
2023-05-02T09:09:09.586Z,80.74
2023-05-02T09:10:11.503Z,79.32
2023-05-02T09:11:02.992Z,79.11
2023-05-02T09:12:10.998Z,79.89
2023-05-02T09:13:02.965Z,78.77
2023-05-02T09:14:14.102Z,78.56
2023-05-02T09:15:03.396Z,78.66
2023-05-02T09:16:09.829Z,79.38
2023-05-02T09:17:11.116Z,82.19
2023-05-02T09:18:09.720Z,78.80
2023-05-02T09:19:09.575Z,75.74
2023-05-02T09:20:02.899Z,75.98
2023-05-02T09:21:09.520Z,75.67
2023-05-02T09:22:09.501Z,76.59
2023-05-02T09:23:09.384Z,76.45
2023-05-02T09:24:05.736Z,75.16
2023-05-02T09:25:09.463Z,75.95
2023-05-02T09:26:10.650Z,74.93
2023-05-02T09:27:17.475Z,75.88
2023-05-02T09:28:10.716Z,74.55
2023-05-02T09:29:09.333Z,75.71
2023-05-02T09:30:11.211Z,77.44
2023-05-02T09:31:13.528Z,75.60
2023-05-02T09:32:11.204Z,75.71
2023-05-02T09:33:09.353Z,74.99
2023-05-02T09:34:10.831Z,75.64
2023-05-02T09:35:10.056Z,75.74
2023-05-02T09:36:11.820Z,74.38
2023-05-02T09:37:09.505Z,74.99
2023-05-02T09:38:02.905Z,74.58
2023-05-02T09:39:02.664Z,74.15
2023-05-02T09:40:11.340Z,72.52
2023-05-02T09:41:10.895Z,73.16
2023-05-02T09:43:42.814Z,74.28
2023-05-02T09:47:29.549Z,72.52
2023-05-02T09:48:25.540Z,73.16
2023-05-02T09:49:25.526Z,72.52
2023-05-02T09:50:25.725Z,73.54
2023-05-02T09:52:37.544Z,73.02
2023-05-02T09:55:09.429Z,73.43
2023-05-02T09:58:41.170Z,73.84
2023-05-02T10:01:15.225Z,70.48
2023-05-02T10:02:05.025Z,71.19
2023-05-02T10:03:06.980Z,73.74
2023-05-02T10:04:08.501Z,73.40
2023-05-02T10:05:05.944Z,71.77
2023-05-02T10:06:26.294Z,71.06
2023-05-02T10:08:24.255Z,71.73
2023-05-02T10:09:16.586Z,71.53
2023-05-02T10:10:13.094Z,72.96
2023-05-02T10:11:13.096Z,72.04
2023-05-02T10:12:19.609Z,72.14
2023-05-02T10:13:19.634Z,71.33
2023-05-02T10:14:19.683Z,71.19
2023-05-02T10:15:20.665Z,72.92
2023-05-02T10:16:31.245Z,71.36
2023-05-02T10:17:13.028Z,72.48
2023-05-02T10:18:19.645Z,69.63
2023-05-02T10:19:19.627Z,68.31
2023-05-02T10:20:20.956Z,67.90
2023-05-02T10:21:26.009Z,68.44
2023-05-02T10:22:20.996Z,68.95
2023-05-02T10:23:19.620Z,69.15
2023-05-02T10:24:21.032Z,69.76
2023-05-02T10:25:12.998Z,70.45
2023-05-02T10:27:32.010Z,69.60
2023-05-02T10:28:30.684Z,69.09
2023-05-02T10:29:30.660Z,70.10
2023-05-02T10:30:33.089Z,69.40
2023-05-02T10:31:38.312Z,68.48
2023-05-02T10:32:31.675Z,68.51
2023-05-02T10:33:30.623Z,69.53
2023-05-02T10:34:33.178Z,68.51
2023-05-02T10:35:30.659Z,69.32
2023-05-02T10:36:42.285Z,68.85
2023-05-02T10:38:34.512Z,69.15
2023-05-02T10:39:43.579Z,69.70
2023-05-02T10:40:43.805Z,70.10
2023-05-02T10:41:42.148Z,71.09
2023-05-02T10:42:42.522Z,71.09
2023-05-02T10:43:41.980Z,71.09
2023-05-02T10:44:43.636Z,72.38
2023-05-02T10:45:41.950Z,71.09
2023-05-02T10:46:59.130Z,71.94
2023-05-02T10:47:42.108Z,72.34
2023-05-02T10:48:43.292Z,72.86
2023-05-02T10:49:42.076Z,71.94
2023-05-02T10:50:35.329Z,72.55
2023-05-02T10:51:46.251Z,73.77
2023-05-02T10:52:35.372Z,72.04
2023-05-02T10:53:41.891Z,72.31
2023-05-02T10:54:43.253Z,72.62
2023-05-02T10:55:41.844Z,70.86
2023-05-02T10:57:01.824Z,70.68
2023-05-02T10:57:35.265Z,69.97
2023-05-02T10:58:43.300Z,70.04
2023-05-02T10:59:41.802Z,69.67
2023-05-02T11:00:41.825Z,69.76
2023-05-02T11:01:50.916Z,69.56
2023-05-02T11:02:43.513Z,70.07
2023-05-02T11:03:41.864Z,70.17
2023-05-02T11:04:43.405Z,69.56
2023-05-02T11:05:41.817Z,69.67
2023-05-02T11:06:44.518Z,70.07
2023-05-02T11:07:41.793Z,70.99
2023-05-02T11:08:42.994Z,71.16
2023-05-02T11:09:41.732Z,70.14
2023-05-02T11:10:43.009Z,70.82
2023-05-02T11:11:43.491Z,71.43
2023-05-02T11:12:43.049Z,71.94
2023-05-02T11:13:41.634Z,71.60
2023-05-02T11:14:41.652Z,70.75
2023-05-02T11:15:43.110Z,70.55
2023-05-02T11:16:43.171Z,70.34
2023-05-02T11:17:41.659Z,69.12
2023-05-02T11:18:41.603Z,69.84
2023-05-02T11:26:19.933Z,68.31
2023-05-02T11:27:23.634Z,68.71
2023-05-02T11:30:37.254Z,69.67
2023-05-02T11:31:29.608Z,69.76
2023-05-02T11:34:51.616Z,68.31
2023-05-02T11:36:00.696Z,69.06
2023-05-02T11:37:25.333Z,68.85
2023-05-02T11:44:35.939Z,66.65
2023-05-02T11:45:36.937Z,65.60
2023-05-02T11:47:47.528Z,65.47
2023-05-02T11:48:56.561Z,64.32
2023-05-02T11:49:54.987Z,63.00
2023-05-02T11:50:56.590Z,62.76
2023-05-02T11:51:48.425Z,62.43
2023-05-02T11:52:54.997Z,62.13
2023-05-02T11:53:56.607Z,62.02
2023-05-02T11:54:56.638Z,62.10
2023-05-02T11:55:56.667Z,63.18
2023-05-02T11:56:56.173Z,63.15
2023-05-02T11:57:56.188Z,60.44
2023-05-02T11:58:56.208Z,60.27
2023-05-02T11:59:56.261Z,60.47
2023-05-02T12:00:55.120Z,61.18
2023-05-02T12:01:56.248Z,60.44
2023-05-02T12:02:54.941Z,59.46
2023-05-02T12:03:56.309Z,61.69
2023-05-02T12:04:56.131Z,61.59
2023-05-02T12:05:56.387Z,61.08
2023-05-02T12:06:54.892Z,60.68
2023-05-02T12:07:56.347Z,60.91
2023-05-02T12:08:54.808Z,61.72
2023-05-02T12:09:56.364Z,61.41
2023-05-02T12:11:04.635Z,62.76
2023-05-02T12:11:56.408Z,62.11
2023-05-02T12:12:54.796Z,62.85
2023-05-02T12:13:59.317Z,62.37
2023-05-02T12:14:54.726Z,63.09
2023-05-02T12:15:56.092Z,63.80
2023-05-02T12:16:54.753Z,64.00
2023-05-02T12:17:56.034Z,64.72
2023-05-02T12:18:54.726Z,63.39
2023-05-02T12:19:56.045Z,62.85
2023-05-02T12:21:04.696Z,62.75
2023-05-02T12:21:54.661Z,62.24
2023-05-02T12:22:56.128Z,61.71
2023-05-02T12:23:54.983Z,61.30
2023-05-02T12:24:56.163Z,60.56
2023-05-02T12:25:56.732Z,60.56
2023-05-02T12:26:56.164Z,61.10
2023-05-02T12:27:55.196Z,60.66
2023-05-02T12:28:56.181Z,61.27
2023-05-02T12:29:54.601Z,59.95
2023-05-02T12:30:56.227Z,60.13
2023-05-02T12:31:54.657Z,59.28
2023-05-02T12:32:55.790Z,58.95
2023-05-02T12:33:54.557Z,58.85
2023-05-02T12:34:55.788Z,58.47
2023-05-02T12:35:56.820Z,59.18
2023-05-02T12:36:56.332Z,59.36
2023-05-02T12:37:54.505Z,58.54
2023-05-02T12:38:55.873Z,56.77
2023-05-02T12:39:54.469Z,56.49
2023-05-02T12:40:55.933Z,57.71
2023-05-02T12:41:54.446Z,57.40
2023-05-02T12:42:56.440Z,59.53
2023-05-02T12:43:54.736Z,56.92
2023-05-02T12:44:55.976Z,58.24
2023-05-02T12:46:05.100Z,57.03
2023-05-02T12:46:54.407Z,57.10
2023-05-02T12:47:54.513Z,57.07
2023-05-02T12:48:54.711Z,56.36
2023-05-02T12:49:54.679Z,57.98
2023-05-02T12:50:56.570Z,58.36
2023-05-02T12:51:54.382Z,56.13
2023-05-02T12:52:55.586Z,56.05
2023-05-02T12:53:54.313Z,56.39
2023-05-02T13:00:28.951Z,56.31
2023-05-02T13:01:38.184Z,56.41
2023-05-02T13:02:36.825Z,56.11
2023-05-02T13:03:36.526Z,56.11
2023-05-02T13:04:36.448Z,55.25
2023-05-02T13:05:48.462Z,55.52
2023-05-02T13:06:36.463Z,55.27
2023-05-02T13:07:37.679Z,54.74
2023-05-02T13:08:36.737Z,53.27
2023-05-02T13:09:38.217Z,49.73
2023-05-02T13:10:37.838Z,50.69
2023-05-02T13:11:36.965Z,53.32
2023-05-02T13:12:36.373Z,52.03
2023-05-02T13:13:36.659Z,52.76
2023-05-02T13:14:37.791Z,56.26
2023-05-02T13:23:21.346Z,55.43
2023-05-02T13:24:29.203Z,55.96
2023-05-02T13:29:54.317Z,58.70
2023-05-02T13:31:01.859Z,56.74
2023-05-02T13:32:03.391Z,56.31
2023-05-02T13:33:02.268Z,56.52
2023-05-02T13:34:01.811Z,58.62
2023-05-02T13:35:03.958Z,57.10
2023-05-02T13:36:01.795Z,56.29
2023-05-02T13:37:01.810Z,56.29
2023-05-02T13:38:02.066Z,55.76
2023-05-02T13:39:01.762Z,54.92
2023-05-02T13:40:03.373Z,54.77
2023-05-02T13:41:03.118Z,56.62
2023-05-02T13:42:03.750Z,57.43
2023-05-02T13:43:01.692Z,55.73
2023-05-02T13:44:03.593Z,56.16
2023-05-02T13:45:03.634Z,57.48
2023-05-02T13:46:01.756Z,57.66
2023-05-02T13:47:01.999Z,58.06
2023-05-02T13:48:02.072Z,56.52
2023-05-02T13:49:03.157Z,56.11
2023-05-02T13:50:03.057Z,54.90
2023-05-02T13:51:01.633Z,55.73
2023-05-02T13:52:03.217Z,56.34
2023-05-02T13:53:03.260Z,56.34
2023-05-02T13:54:02.090Z,55.83
2023-05-02T13:55:02.765Z,55.96
2023-05-02T13:56:02.199Z,56.67
2023-05-02T13:57:03.281Z,57.71
2023-05-02T13:58:03.289Z,56.77
2023-05-02T13:59:01.550Z,56.90
2023-05-02T14:00:04.147Z,57.51
2023-05-02T14:01:03.008Z,57.23
2023-05-02T14:02:03.471Z,57.39
2023-05-02T14:03:01.536Z,58.53
2023-05-02T14:04:03.037Z,58.36
2023-05-02T14:05:01.469Z,58.05
2023-05-02T14:06:03.027Z,59.38
2023-05-02T14:07:01.516Z,57.95
2023-05-02T14:08:01.504Z,57.52
2023-05-02T14:09:03.016Z,56.93
2023-05-02T14:10:01.714Z,57.01
2023-05-02T14:11:01.398Z,56.27
2023-05-02T14:12:01.402Z,55.43
2023-05-02T14:13:03.068Z,55.02
2023-05-02T14:14:01.375Z,54.77
2023-05-02T14:15:05.639Z,53.91
2023-05-02T14:16:02.637Z,52.00
2023-05-02T14:17:03.576Z,53.91
2023-05-02T14:18:01.667Z,52.94
2023-05-02T14:19:01.621Z,48.02
2023-05-02T14:20:03.428Z,48.95
2023-05-02T14:23:12.584Z,49.02
2023-05-02T14:24:19.231Z,51.32
2023-05-02T14:25:18.726Z,49.38
2023-05-02T14:26:17.432Z,51.09
2023-05-02T14:27:17.421Z,47.60
2023-05-02T14:28:19.297Z,48.43
2023-05-02T14:29:18.000Z,49.37
2023-05-02T14:32:39.452Z,50.25
2023-05-02T14:33:47.235Z,50.86
2023-05-02T14:34:47.214Z,50.76
2023-05-02T14:38:08.330Z,51.90
2023-05-02T14:39:17.304Z,52.61
2023-05-02T14:40:26.530Z,51.09
2023-05-02T14:41:17.895Z,50.98
2023-05-02T14:42:17.384Z,51.37
2023-05-02T14:43:17.381Z,49.52
2023-05-02T14:44:15.831Z,49.57
2023-05-02T14:45:17.420Z,47.05
2023-05-02T14:46:17.435Z,46.09
2023-05-02T14:47:18.100Z,43.26
2023-05-02T14:48:17.099Z,44.72
2023-05-02T14:49:17.473Z,44.40
2023-05-02T14:50:17.018Z,44.72
2023-05-02T14:51:16.044Z,46.30
2023-05-02T14:52:17.534Z,47.14
2023-05-02T14:53:17.575Z,47.14
2023-05-02T14:54:16.005Z,46.83
2023-05-02T15:15:26.538Z,49.97
2023-05-02T15:16:31.081Z,48.10
2023-05-02T15:17:30.763Z,48.10
2023-05-02T15:18:30.786Z,46.88
2023-05-02T15:19:32.872Z,47.28
2023-05-02T15:20:36.175Z,49.52
2023-05-02T15:21:32.505Z,47.91
2023-05-02T15:22:31.016Z,48.34
2023-05-02T15:23:30.968Z,48.97
2023-05-02T15:24:32.458Z,49.56
2023-05-02T15:25:32.505Z,48.85
2023-05-02T15:26:30.623Z,49.82
2023-05-02T15:27:30.958Z,47.38
2023-05-02T15:28:32.033Z,47.69
2023-05-02T15:29:30.904Z,46.80
2023-05-02T15:35:09.461Z,47.88
2023-05-02T15:36:12.345Z,47.88
2023-05-02T15:37:12.902Z,48.08
2023-05-02T15:38:11.301Z,46.92
2023-05-02T15:39:11.311Z,46.82
2023-05-02T15:41:21.552Z,47.67
2023-05-02T15:42:29.708Z,47.58
2023-05-02T15:43:30.648Z,47.90
2023-05-02T15:44:29.061Z,47.13
2023-05-02T15:45:30.670Z,46.06
2023-05-02T15:46:29.133Z,45.17
2023-05-02T15:47:29.015Z,45.80
2023-05-02T15:48:29.378Z,47.13
2023-05-02T15:49:29.043Z,47.22
2023-05-02T15:51:29.606Z,46.39
2023-05-02T15:52:37.769Z,46.74
2023-05-02T15:53:37.125Z,47.58
2023-05-02T15:54:38.634Z,46.53
2023-05-02T15:55:39.670Z,47.58
2023-05-02T15:56:38.679Z,47.90
2023-05-02T15:57:37.372Z,50.65
2023-05-02T15:58:37.389Z,47.33
2023-05-02T15:59:39.225Z,48.58
2023-05-02T16:00:39.570Z,47.80
2023-05-02T16:01:37.384Z,42.72
2023-05-02T16:02:40.327Z,41.50
2023-05-02T16:03:37.144Z,42.55
2023-05-02T16:04:38.421Z,43.14
2023-05-02T16:05:43.782Z,41.93
2023-05-02T16:06:39.362Z,41.83
2023-05-02T16:07:37.570Z,42.55
2023-05-02T16:08:38.382Z,44.20
2023-05-02T16:09:36.959Z,44.38
2023-05-02T16:10:40.292Z,44.48
2023-05-02T16:11:38.446Z,42.66
2023-05-02T16:12:37.219Z,42.86
2023-05-02T16:13:36.882Z,42.96
2023-05-02T16:14:38.475Z,44.48
2023-05-02T17:14:15.862Z,46.89
2023-05-02T17:15:15.426Z,45.67
2023-05-02T17:16:17.565Z,47.60
2023-05-02T17:17:15.406Z,46.70
2023-05-02T17:18:15.988Z,46.40
2023-05-02T17:21:23.894Z,46.60
2023-05-02T17:22:31.669Z,47.52
2023-05-02T17:23:34.361Z,48.56
2023-05-02T17:24:32.868Z,46.93
2023-05-02T17:25:32.884Z,47.21
2023-05-02T17:26:32.886Z,45.79
2023-05-02T17:27:33.386Z,46.30
2023-05-02T17:28:38.147Z,46.22
2023-05-02T17:29:32.951Z,46.62
2023-05-02T17:30:31.313Z,46.62
2023-05-02T17:31:33.588Z,47.95
2023-05-02T17:32:31.335Z,48.15
2023-05-02T17:33:34.081Z,49.78
2023-05-02T17:34:30.916Z,47.34
2023-05-02T17:35:31.287Z,46.62
2023-05-02T17:36:31.268Z,46.22
2023-05-02T17:37:31.905Z,46.50
2023-05-02T17:38:36.901Z,46.32
2023-05-02T17:39:31.537Z,47.11
2023-05-02T17:40:31.212Z,46.62
2023-05-02T17:41:32.589Z,47.34
2023-05-02T17:42:31.204Z,47.64
2023-05-02T17:43:38.122Z,47.54
2023-05-02T17:44:32.652Z,46.42
2023-05-02T17:45:31.187Z,47.34
2023-05-02T17:46:31.198Z,47.44
2023-05-02T17:47:33.199Z,46.62
2023-05-02T17:50:34.612Z,46.32
2023-05-02T17:51:41.968Z,46.03
2023-05-02T17:52:42.282Z,46.44
2023-05-02T17:53:46.838Z,46.44
2023-05-02T17:54:43.434Z,46.14
2023-05-02T17:55:43.444Z,45.94
2023-05-02T17:56:41.977Z,45.83
2023-05-02T17:57:43.473Z,46.55
2023-05-02T17:58:44.345Z,46.34
2023-05-02T17:59:42.190Z,47.16
2023-05-02T18:00:43.537Z,47.16
2023-05-02T18:01:43.585Z,46.95
2023-05-02T18:02:44.643Z,45.65
2023-05-02T18:03:43.197Z,45.04
2023-05-02T18:04:44.765Z,46.06
2023-05-02T18:05:41.839Z,45.45
2023-05-02T18:06:42.157Z,45.75
2023-05-02T18:07:50.534Z,45.85
2023-05-02T18:08:43.164Z,46.67
2023-05-02T18:09:43.172Z,45.87
2023-05-02T18:10:41.792Z,46.08
2023-05-02T18:11:43.215Z,46.28
2023-05-02T18:12:44.239Z,46.59
2023-05-02T18:13:43.286Z,46.89
2023-05-02T18:14:43.280Z,47.00
2023-05-02T18:15:41.757Z,47.09
2023-05-02T18:16:41.949Z,47.42
2023-05-02T18:17:43.357Z,47.83
2023-05-02T18:18:44.352Z,47.12
2023-05-02T18:19:41.734Z,48.03
2023-05-02T18:20:42.886Z,47.32
2023-05-02T18:21:41.710Z,47.94
2023-05-02T18:22:41.666Z,47.55
2023-05-02T18:23:42.979Z,48.16
2023-05-02T18:24:41.687Z,47.86
2023-05-02T18:25:41.636Z,47.65
2023-05-02T18:26:41.662Z,48.57
2023-05-02T18:27:43.009Z,48.36
2023-05-02T18:28:44.577Z,48.26
2023-05-02T18:29:43.033Z,48.69
2023-05-02T18:30:43.092Z,48.69
2023-05-02T18:31:35.094Z,48.80
2023-05-02T18:32:41.601Z,51.35
2023-05-02T18:33:50.714Z,51.17
2023-05-02T18:34:43.095Z,51.68
2023-05-02T18:35:41.548Z,51.98
2023-05-02T18:36:41.506Z,51.17
2023-05-02T18:37:41.525Z,52.52
2023-05-02T18:38:43.169Z,53.23
2023-05-02T18:39:42.680Z,53.23
2023-05-02T18:40:41.473Z,54.57
2023-05-02T18:41:42.712Z,55.71
2023-05-02T18:42:41.452Z,57.35
2023-05-02T18:43:46.248Z,57.48
2023-05-02T18:44:42.774Z,56.76
2023-05-02T18:45:42.788Z,56.56
2023-05-02T18:46:42.897Z,58.73
2023-05-02T18:47:41.405Z,57.81
2023-05-02T18:48:46.081Z,59.89
2023-05-02T18:49:42.863Z,60.30
2023-05-02T18:50:41.352Z,60.30
2023-05-02T18:51:42.906Z,59.92
2023-05-02T18:52:42.939Z,61.55
2023-05-02T18:53:44.890Z,62.07
2023-05-02T18:54:42.955Z,62.78
2023-05-02T18:55:41.335Z,64.04
2023-05-02T18:56:41.310Z,64.04
2023-05-02T18:57:44.027Z,63.43
2023-05-02T18:58:42.560Z,63.56
2023-05-02T18:59:41.278Z,63.56
2023-05-02T19:00:43.596Z,64.07
2023-05-02T19:01:41.266Z,64.59
2023-05-02T19:02:41.293Z,63.87
2023-05-02T19:03:42.728Z,64.31
2023-05-02T19:04:41.211Z,66.05
2023-05-02T19:05:42.705Z,65.74
2023-05-02T19:06:42.836Z,67.79
2023-05-02T19:07:41.167Z,67.72
2023-05-02T19:08:49.602Z,68.03
2023-05-02T19:09:42.805Z,67.32
2023-05-02T19:10:41.133Z,66.70
2023-05-02T19:11:41.118Z,65.70
2023-05-02T19:12:43.877Z,66.83
2023-05-02T19:13:44.162Z,66.31
2023-05-02T19:14:41.118Z,66.01
2023-05-02T19:15:41.105Z,64.57
2023-05-02T19:16:41.157Z,64.88
2023-05-02T19:17:42.404Z,65.39
2023-05-02T19:18:42.907Z,65.83
2023-05-02T19:19:42.452Z,67.38
2023-05-02T19:20:42.430Z,71.79
2023-05-02T19:21:42.446Z,71.59
2023-05-02T19:22:42.466Z,71.31
2023-05-02T19:23:43.082Z,71.31
2023-05-02T19:24:34.457Z,71.31
2023-05-02T19:25:40.986Z,70.59
2023-05-02T19:26:42.516Z,70.62
2023-05-02T19:27:42.102Z,70.62
2023-05-02T19:28:42.049Z,71.66
2023-05-02T19:29:42.565Z,70.62
2023-05-02T19:30:40.965Z,70.35
2023-05-02T19:31:42.632Z,70.66
2023-05-02T19:32:34.421Z,70.56
2023-05-02T19:33:43.602Z,70.97
2023-05-02T19:34:40.935Z,71.79
2023-05-02T19:35:40.901Z,71.79
2023-05-02T19:36:40.944Z,72.24
2023-05-02T19:37:42.167Z,73.68
2023-05-02T19:38:53.840Z,74.29
2023-05-02T19:40:48.261Z,74.08
2023-05-02T19:41:45.940Z,75.12
2023-05-02T19:42:52.438Z,75.05
2023-05-02T19:43:53.516Z,74.43
2023-05-02T19:44:45.905Z,74.53
2023-05-02T19:45:52.484Z,74.63
2023-05-02T19:46:52.411Z,75.15
2023-05-02T19:47:52.504Z,75.77
2023-05-02T19:48:53.584Z,75.15
2023-05-02T19:49:53.404Z,75.60
2023-05-02T19:50:53.614Z,75.90
2023-05-02T19:51:52.404Z,75.90
2023-05-02T19:52:53.657Z,75.39
2023-05-02T19:53:56.244Z,75.49
2023-05-02T19:54:52.386Z,76.21
2023-05-02T19:55:53.695Z,76.93
2023-05-02T19:56:52.346Z,77.48
2023-05-02T19:57:53.767Z,76.76
2023-05-02T19:58:53.780Z,76.15
2023-05-02T19:59:52.292Z,75.84
2023-05-02T20:00:52.356Z,75.84
2023-05-02T20:01:53.782Z,76.25
2023-05-02T20:02:52.350Z,76.15
2023-05-02T20:03:52.347Z,76.49
2023-05-02T20:04:53.839Z,76.70
2023-05-02T20:05:52.244Z,77.11
2023-05-02T20:06:52.301Z,77.31
2023-05-02T20:07:53.880Z,77.52
2023-05-02T20:08:53.402Z,77.42
2023-05-02T20:09:53.409Z,77.56
2023-05-02T20:10:52.164Z,78.18
2023-05-02T20:11:53.441Z,78.28
2023-05-02T20:12:53.457Z,78.90
2023-05-02T20:13:53.478Z,78.80
2023-05-02T20:14:53.967Z,79.11
2023-05-02T20:15:52.118Z,79.93
2023-05-02T20:16:53.508Z,80.69
2023-05-02T20:17:53.560Z,80.48
2023-05-02T20:18:57.867Z,79.66
2023-05-02T20:19:53.561Z,79.66
2023-05-02T20:20:52.288Z,79.55
2023-05-02T20:21:52.097Z,79.66
2023-05-02T20:22:52.065Z,79.86
2023-05-02T20:23:53.637Z,79.76
2023-05-02T20:24:52.084Z,79.66
2023-05-02T20:25:52.018Z,79.76
2023-05-02T20:26:51.986Z,80.07
2023-05-02T20:27:52.005Z,80.28
2023-05-02T20:28:53.211Z,80.11
2023-05-02T20:29:51.976Z,79.90
2023-05-02T20:30:51.972Z,80.21
2023-05-02T20:31:54.489Z,81.04
2023-05-02T20:32:52.062Z,81.35
2023-05-02T20:34:05.269Z,80.32
2023-05-02T20:36:02.433Z,80.83
2023-05-02T20:38:07.228Z,81.24
2023-05-02T20:39:14.771Z,80.87
2023-05-02T20:40:16.161Z,80.76
2023-05-02T20:41:14.762Z,80.46
2023-05-02T20:42:16.226Z,80.76
2023-05-02T20:43:16.240Z,81.38
2023-05-02T20:44:14.708Z,81.70
2023-05-02T20:45:14.721Z,82.00
2023-05-02T20:46:16.519Z,82.00
2023-05-02T20:47:16.298Z,82.00
2023-05-02T20:48:18.857Z,82.00
2023-05-02T20:49:16.328Z,82.35
2023-05-02T20:50:14.664Z,82.87
2023-05-02T20:51:15.860Z,82.97
2023-05-02T20:52:14.644Z,82.76
2023-05-02T20:53:23.760Z,82.97
2023-05-02T20:54:16.402Z,82.87
2023-05-02T20:55:14.628Z,82.87
2023-05-02T20:56:14.590Z,82.80
2023-05-02T20:57:14.621Z,83.01
2023-05-02T20:58:23.483Z,83.32
2023-05-02T20:59:16.004Z,83.53
2023-05-02T21:00:14.583Z,83.84
2023-05-02T21:01:16.067Z,83.94
2023-05-02T21:02:16.030Z,84.15
2023-05-02T21:03:18.070Z,84.05
2023-05-02T21:04:14.573Z,84.15
2023-05-02T21:05:16.055Z,84.15
2023-05-02T21:06:16.089Z,84.36
2023-05-02T21:07:17.084Z,84.45